Time;durP1;ratioP1;P1;durP2;ratioP2;P2;SDS_P1;SDS_P2;PMS_P1;PMS_P2;Temp;Humidity;BMP_temperature;BMP_pressure;BME280_temperature;BME280_humidity;BME280_pressure;Samples;Min_cycle;Max_cycle;Signal;HPM_P1;HPM_P2
2023/10/05 00:01:44;;;;;;;0.98;0.47;;;20.00;33.50;;;;;;5078897;28;20367;-79
2023/10/05 00:04:08;;;;;;;1.15;0.63;;;20.00;32.80;;;;;;5089623;28;20044;-85
2023/10/05 00:06:35;;;;;;;1.45;0.50;;;20.20;33.30;;;;;;5070280;28;20028;-77
2023/10/05 00:09:11;;;;;;;1.45;0.45;;;20.20;33.50;;;;;;5069817;28;20040;-79
2023/10/05 00:11:39;;;;;;;1.50;0.45;;;20.30;33.90;;;;;;5074606;28;20021;-77
2023/10/05 00:14:07;;;;;;;0.70;0.50;;;20.20;31.60;;;;;;5090620;28;20025;-82
2023/10/05 00:16:37;;;;;;;4.90;0.70;;;20.20;31.90;;;;;;5067280;28;20037;-77
2023/10/05 00:21:42;;;;;;;1.90;0.50;;;20.20;29.60;;;;;;5082442;28;20081;-81
2023/10/05 00:24:11;;;;;;;1.08;0.52;;;20.30;30.80;;;;;;5075757;28;20055;-79
2023/10/05 00:26:39;;;;;;;0.93;0.60;;;20.40;31.20;;;;;;5075598;28;20029;-84
2023/10/05 00:29:21;;;;;;;1.88;0.50;;;20.60;30.20;;;;;;5088013;28;20024;-79
2023/10/05 00:31:49;;;;;;;1.00;0.47;;;20.70;31.10;;;;;;5063839;28;20012;-78
2023/10/05 00:34:24;;;;;;;0.70;0.43;;;20.70;30.70;;;;;;5057993;28;20040;-82
2023/10/05 00:36:59;;;;;;;1.63;0.40;;;20.80;31.20;;;;;;5058391;28;20040;-77
2023/10/05 00:39:31;;;;;;;1.85;0.45;;;21.10;31.00;;;;;;5062801;28;20045;-77
2023/10/05 00:44:30;;;;;;;4.78;0.50;;;21.20;30.70;;;;;;5063151;28;20013;-77
2023/10/05 00:47:01;;;;;;;0.70;0.50;;;21.40;30.80;;;;;;5056742;28;20020;-81
2023/10/05 00:49:30;;;;;;;0.90;0.50;;;21.60;29.50;;;;;;5073786;28;20021;-81
2023/10/05 00:52:13;;;;;;;4.15;0.70;;;21.80;29.80;;;;;;5071616;28;20063;-85
2023/10/05 00:54:44;;;;;;;2.63;0.55;;;21.80;28.80;;;;;;5067637;28;20500;-84
2023/10/05 00:57:14;;;;;;;0.95;0.70;;;21.80;29.20;;;;;;5072364;28;20045;-79
2023/10/05 00:59:46;;;;;;;2.20;0.60;;;21.90;28.00;;;;;;5068752;28;20027;-76
2023/10/05 01:02:21;;;;;;;0.40;0.40;;;21.90;26.50;;;;;;5071342;28;20033;-84
2023/10/05 01:05:01;;;;;;;1.42;0.63;;;22.00;28.40;;;;;;5073295;28;20016;-82
2023/10/05 01:10:43;;;;;;;1.50;0.60;;;21.80;24.20;;;;;;5049060;28;20112;-80
2023/10/05 01:13:28;;;;;;;1.27;0.60;;;21.80;25.00;;;;;;5054493;28;20063;-81
2023/10/05 01:15:56;;;;;;;1.30;0.55;;;21.80;25.00;;;;;;5070919;28;20036;-79
2023/10/05 01:18:29;;;;;;;1.10;0.60;;;21.70;25.70;;;;;;5072727;28;20037;-82
2023/10/05 01:21:02;;;;;;;2.30;0.55;;;21.70;24.50;;;;;;5062397;28;20013;-84
2023/10/05 01:23:38;;;;;;;2.30;0.60;;;21.60;25.30;;;;;;5073344;28;20032;-83
2023/10/05 01:26:10;;;;;;;;;;;21.60;24.80;;;;;;5074332;28;20029;-84
2023/10/05 01:28:41;;;;;;;2.70;0.70;;;21.40;25.30;;;;;;5066805;28;19959;-85
2023/10/05 01:31:16;;;;;;;3.15;0.57;;;21.50;26.20;;;;;;5076852;28;20025;-75
2023/10/05 01:33:44;;;;;;;1.38;0.60;;;21.50;25.50;;;;;;5081108;28;20499;-76
2023/10/05 01:36:12;;;;;;;0.70;0.52;;;21.60;27.60;;;;;;5084550;28;20605;-75
2023/10/05 01:38:40;;;;;;;2.03;0.70;;;21.80;27.00;;;;;;5069838;28;20071;-76
2023/10/05 01:41:09;;;;;;;2.08;0.60;;;21.90;24.20;;;;;;5070776;28;20078;-79
2023/10/05 01:43:42;;;;;;;1.77;0.50;;;21.80;24.30;;;;;;5070805;28;20033;-77
2023/10/05 01:46:14;;;;;;;4.10;0.60;;;22.00;24.60;;;;;;5076278;28;20016;-87
2023/10/05 01:48:41;;;;;;;2.28;0.70;;;22.10;24.20;;;;;;5075539;28;20055;-78
2023/10/05 01:51:15;;;;;;;1.02;0.70;;;22.30;24.80;;;;;;5076721;28;20031;-88
2023/10/05 01:53:44;;;;;;;0.45;0.45;;;22.40;24.50;;;;;;5077061;28;20126;-87
2023/10/05 01:56:20;;;;;;;1.45;0.60;;;22.30;22.60;;;;;;5073371;28;20467;-81
2023/10/05 01:58:52;;;;;;;1.65;0.70;;;22.20;23.90;;;;;;5074411;28;20025;-78
2023/10/05 02:01:21;;;;;;;1.63;0.70;;;22.10;22.50;;;;;;5075215;28;20087;-79
2023/10/05 02:03:54;;;;;;;1.38;0.60;;;22.10;24.10;;;;;;5074071;28;20021;-79
2023/10/05 02:06:21;;;;;;;0.85;0.60;;;22.30;22.60;;;;;;5055991;28;20037;-77
2023/10/05 02:08:49;;;;;;;0.43;0.40;;;22.20;22.70;;;;;;5062723;28;20458;-79
2023/10/05 02:11:24;;;;;;;0.82;0.52;;;22.00;22.20;;;;;;5078759;28;20037;-82
2023/10/05 02:13:52;;;;;;;1.80;0.57;;;22.00;22.70;;;;;;5062424;28;20480;-81
2023/10/05 02:16:21;;;;;;;2.97;1.20;;;22.10;24.40;;;;;;5064582;28;20394;-79
2023/10/05 02:18:49;;;;;;;2.53;1.40;;;22.20;23.60;;;;;;5080671;28;20501;-85
2023/10/05 02:21:31;;;;;;;2.35;0.90;;;22.20;23.80;;;;;;5076870;28;21082;-86
2023/10/05 02:24:09;;;;;;;1.40;0.60;;;22.40;22.60;;;;;;5073623;28;20443;-81
2023/10/05 02:26:36;;;;;;;1.15;0.70;;;22.50;22.50;;;;;;5068026;28;20039;-85
2023/10/05 02:29:16;;;;;;;1.23;0.60;;;22.70;24.60;;;;;;5077897;28;20027;-80
2023/10/05 02:34:59;;;;;;;0.90;0.73;;;22.80;23.50;;;;;;5064417;28;20028;-81
2023/10/05 02:37:36;;;;;;;2.00;0.85;;;22.80;22.70;;;;;;5059569;28;20055;-82
2023/10/05 02:40:08;;;;;;;4.35;1.05;;;22.70;21.90;;;;;;5056577;28;20076;-85
2023/10/05 02:42:39;;;;;;;1.33;0.75;;;22.80;21.90;;;;;;5057344;28;20117;-87
2023/10/05 02:45:09;;;;;;;2.53;1.13;;;22.80;22.50;;;;;;5062062;28;20434;-79
2023/10/05 02:47:36;;;;;;;2.05;0.70;;;22.90;22.90;;;;;;5094067;28;20055;-78
2023/10/05 02:50:05;;;;;;;2.83;0.70;;;22.90;21.40;;;;;;5068334;28;20067;-83
2023/10/05 02:52:33;;;;;;;1.10;0.50;;;22.90;23.20;;;;;;5071053;28;20086;-86
2023/10/05 02:55:00;;;;;;;2.47;0.60;;;23.00;21.90;;;;;;5073607;28;20524;-79
2023/10/05 02:57:28;;;;;;;2.38;0.50;;;23.10;22.30;;;;;;5076345;28;20036;-79
2023/10/05 02:59:55;;;;;;;1.70;0.52;;;23.20;22.00;;;;;;5070263;28;20047;-78
2023/10/05 03:02:23;;;;;;;0.88;0.52;;;23.30;22.20;;;;;;5075849;28;20498;-80
2023/10/05 03:05:02;;;;;;;1.13;0.50;;;23.20;21.90;;;;;;5078725;28;20032;-86
2023/10/05 03:07:30;;;;;;;4.03;0.50;;;23.10;21.80;;;;;;5079695;28;20027;-82
2023/10/05 03:10:01;;;;;;;1.52;0.40;;;23.10;21.60;;;;;;5081020;28;20066;-80
2023/10/05 03:12:29;;;;;;;1.15;0.50;;;23.10;21.30;;;;;;5079866;28;20086;-85
2023/10/05 03:14:56;;;;;;;0.50;0.50;;;22.90;22.20;;;;;;5075550;28;20051;-86
2023/10/05 03:17:26;;;;;;;1.15;0.50;;;22.90;21.60;;;;;;5069895;28;20465;-83
2023/10/05 03:19:53;;;;;;;1.23;0.60;;;22.90;21.60;;;;;;5087076;28;20055;-79
2023/10/05 03:22:23;;;;;;;0.95;0.60;;;22.90;22.30;;;;;;5076971;28;20511;-82
2023/10/05 03:24:51;;;;;;;1.30;0.50;;;23.00;22.00;;;;;;5074441;28;20051;-87
2023/10/05 03:27:21;;;;;;;3.63;0.70;;;23.00;21.20;;;;;;5077795;28;20067;-84
2023/10/05 03:29:52;;;;;;;0.73;0.50;;;23.00;22.10;;;;;;5073460;28;20017;-81
2023/10/05 03:32:20;;;;;;;3.25;0.50;;;23.00;22.00;;;;;;5076862;28;20483;-90
2023/10/05 03:34:55;;;;;;;0.90;0.40;;;23.20;22.50;;;;;;5079316;28;20077;-92
2023/10/05 03:37:24;;;;;;;0.38;0.38;;;23.30;23.20;;;;;;5075909;28;20036;-81
2023/10/05 03:39:53;;;;;;;1.65;0.65;;;23.30;22.30;;;;;;5077045;28;20028;-88
2023/10/05 03:42:23;;;;;;;0.80;0.52;;;23.30;22.10;;;;;;5078961;28;20036;-89
2023/10/05 03:45:00;;;;;;;0.88;0.40;;;23.30;21.80;;;;;;5074448;28;20027;-81
2023/10/05 03:47:28;;;;;;;1.85;0.50;;;23.20;22.30;;;;;;5070459;28;20494;-80
2023/10/05 03:49:55;;;;;;;5.78;0.80;;;23.30;22.80;;;;;;5077774;28;20051;-82
2023/10/05 03:52:29;;;;;;;2.05;0.73;;;23.40;22.00;;;;;;5090254;28;20058;-87
2023/10/05 03:55:33;;;;;;;3.22;0.57;;;23.40;22.20;;;;;;5072727;28;20021;-78
2023/10/05 03:57:53;;;;;;;2.22;0.50;;;23.40;21.70;;;;;;5074012;28;20076;-79
2023/10/05 04:00:24;;;;;;;0.98;0.50;;;23.30;22.00;;;;;;5072926;28;20083;-79
2023/10/05 04:02:56;;;;;;;1.58;0.60;;;23.20;21.80;;;;;;5075079;28;20029;-86
2023/10/05 04:05:24;;;;;;;3.10;0.60;;;23.40;22.50;;;;;;5054132;28;20155;-86
2023/10/05 04:07:52;;;;;;;1.17;0.50;;;23.30;21.60;;;;;;5073528;28;20024;-82
2023/10/05 04:10:45;;;;;;;1.90;0.70;;;23.40;22.10;;;;;;5077150;28;20103;-78
2023/10/05 04:13:24;;;;;;;1.42;0.60;;;23.40;21.30;;;;;;5081638;28;20036;-82
2023/10/05 04:15:51;;;;;;;3.00;0.75;;;23.30;22.10;;;;;;5076410;28;20554;-78
2023/10/05 04:18:20;;;;;;;2.05;0.57;;;23.30;22.10;;;;;;5073841;28;20051;-85
2023/10/05 04:20:48;;;;;;;1.38;0.60;;;23.50;24.00;;;;;;5075763;28;20031;-80
2023/10/05 04:23:20;;;;;;;1.23;0.73;;;23.60;22.30;;;;;;5072951;28;20037;-80
2023/10/05 04:25:51;;;;;;;2.13;0.55;;;23.70;22.90;;;;;;5062256;28;20054;-85
2023/10/05 04:28:31;;;;;;;0.75;0.32;;;23.80;23.60;;;;;;5077404;28;20103;-81
2023/10/05 04:30:58;;;;;;;1.98;0.57;;;23.90;22.80;;;;;;5071321;28;20025;-80
2023/10/05 04:33:31;;;;;;;1.95;0.60;;;23.80;22.10;;;;;;5074330;28;20035;-82
2023/10/05 04:35:59;;;;;;;1.27;0.50;;;23.80;23.80;;;;;;5081605;28;20420;-85
2023/10/05 04:38:26;;;;;;;2.72;0.40;;;23.80;22.50;;;;;;5073729;28;20041;-81
2023/10/05 04:40:58;;;;;;;3.30;0.77;;;23.80;22.40;;;;;;5073460;28;20033;-81
2023/10/05 04:43:25;;;;;;;1.23;0.55;;;23.80;23.70;;;;;;5063687;28;20058;-87
2023/10/05 04:45:53;;;;;;;2.08;0.60;;;23.70;22.80;;;;;;5073710;28;20028;-81
2023/10/05 04:48:23;;;;;;;1.08;0.50;;;23.60;22.70;;;;;;5068593;28;20028;-82
2023/10/05 04:50:51;;;;;;;2.45;0.80;;;23.60;23.60;;;;;;5080796;28;20024;-88
2023/10/05 04:53:20;;;;;;;0.75;0.60;;;23.70;23.00;;;;;;5078357;28;20028;-82
2023/10/05 04:55:47;;;;;;;0.93;0.50;;;23.70;23.10;;;;;;5089256;28;20047;-83
2023/10/05 04:58:23;;;;;;;2.05;0.50;;;23.60;23.70;;;;;;5070941;28;20043;-83
2023/10/05 05:03:55;;;;;;;0.47;0.45;;;23.40;24.40;;;;;;5050008;28;20025;-80
2023/10/05 05:06:27;;;;;;;1.13;0.60;;;23.50;25.20;;;;;;5075254;28;20119;-80
2023/10/05 05:08:54;;;;;;;3.42;0.90;;;23.60;23.20;;;;;;5077282;28;20025;-85
2023/10/05 05:11:23;;;;;;;1.02;0.70;;;23.70;24.70;;;;;;5067980;28;20028;-81
2023/10/05 05:13:51;;;;;;;1.13;0.50;;;23.70;24.50;;;;;;5064656;28;20044;-79
2023/10/05 05:16:19;;;;;;;1.83;0.68;;;23.60;23.40;;;;;;5064230;28;20032;-81
2023/10/05 05:18:46;;;;;;;1.38;0.75;;;23.50;23.60;;;;;;5072827;28;20036;-83
2023/10/05 05:21:14;;;;;;;1.65;0.65;;;23.40;24.20;;;;;;5062733;28;20035;-79
2023/10/05 05:23:43;;;;;;;3.83;0.70;;;23.40;24.50;;;;;;5065366;28;20025;-84
2023/10/05 05:26:11;;;;;;;1.08;0.60;;;23.50;25.50;;;;;;5064730;28;20080;-79
2023/10/05 05:28:39;;;;;;;1.13;0.40;;;23.40;24.70;;;;;;5065961;28;20036;-84
2023/10/05 05:31:16;;;;;;;2.20;0.60;;;23.30;24.80;;;;;;5056940;28;20025;-81
2023/10/05 05:33:44;;;;;;;3.25;0.63;;;23.40;25.70;;;;;;5060011;28;20069;-86
2023/10/05 05:36:13;;;;;;;3.05;0.50;;;23.60;24.70;;;;;;5064168;28;20086;-82
2023/10/05 05:38:41;;;;;;;2.05;0.60;;;23.50;25.50;;;;;;5068821;28;20167;-84
2023/10/05 05:41:27;;;;;;;0.77;0.50;;;23.60;25.10;;;;;;5063955;28;20139;-80
2023/10/05 05:43:55;;;;;;;1.33;0.50;;;23.50;25.40;;;;;;5061423;28;20756;-88
2023/10/05 05:46:23;;;;;;;4.07;0.60;;;23.40;25.70;;;;;;5063395;28;20029;-84
2023/10/05 05:48:52;;;;;;;1.90;0.70;;;23.20;25.60;;;;;;5060950;28;20021;-82
2023/10/05 05:51:23;;;;;;;1.98;0.70;;;23.10;26.20;;;;;;5063178;28;20025;-87
2023/10/05 05:53:52;;;;;;;2.75;0.55;;;22.80;26.50;;;;;;5068694;28;20067;-85
2023/10/05 05:56:19;;;;;;;1.92;0.63;;;22.80;26.50;;;;;;5065651;28;20040;-80
2023/10/05 05:58:50;;;;;;;3.58;0.68;;;22.80;26.80;;;;;;5066011;28;20033;-86
2023/10/05 06:01:19;;;;;;;11.23;0.90;;;22.90;27.00;;;;;;5067570;28;20037;-84
2023/10/05 06:03:50;;;;;;;1.55;0.60;;;23.00;26.90;;;;;;5056177;28;20127;-80
2023/10/05 06:06:19;;;;;;;1.70;0.55;;;22.80;26.60;;;;;;5071072;28;20472;-87
2023/10/05 06:08:49;;;;;;;0.90;0.50;;;22.80;26.00;;;;;;5072329;28;20033;-85
2023/10/05 06:11:16;;;;;;;4.63;0.60;;;22.60;27.10;;;;;;5056582;28;20500;-85
2023/10/05 06:13:45;;;;;;;0.50;0.40;;;22.70;26.90;;;;;;5059891;28;20486;-81
2023/10/05 06:16:14;;;;;;;2.22;0.43;;;22.60;26.70;;;;;;5068922;28;20476;-84
2023/10/05 06:18:41;;;;;;;0.77;0.60;;;22.70;26.50;;;;;;5080629;28;20553;-85
2023/10/05 06:21:09;;;;;;;4.20;0.60;;;22.70;26.20;;;;;;5060556;28;20055;-87
2023/10/05 06:23:37;;;;;;;0.88;0.60;;;22.50;26.50;;;;;;5063041;28;20016;-81
2023/10/05 06:26:06;;;;;;;2.35;0.68;;;22.70;27.10;;;;;;5065944;28;20041;-85
2023/10/05 06:28:42;;;;;;;1.42;0.60;;;22.70;27.50;;;;;;5073509;28;20114;-82
2023/10/05 06:31:13;;;;;;;2.08;0.60;;;22.60;27.00;;;;;;5069196;28;20028;-83
2023/10/05 06:33:42;;;;;;;1.25;0.57;;;22.50;26.90;;;;;;5076323;28;20023;-79
2023/10/05 06:36:09;;;;;;;1.85;0.80;;;22.40;27.80;;;;;;5076023;28;20050;-84
2023/10/05 06:38:38;;;;;;;1.10;0.70;;;22.40;28.40;;;;;;5074158;28;20123;-81
2023/10/05 06:41:06;;;;;;;1.83;0.60;;;22.50;27.80;;;;;;5067017;28;20029;-85
2023/10/05 06:43:36;;;;;;;1.00;0.60;;;22.50;26.50;;;;;;5072409;28;20028;-82
2023/10/05 06:46:09;;;;;;;1.35;0.80;;;22.40;26.30;;;;;;5075220;28;20024;-79
2023/10/05 06:48:38;;;;;;;0.50;0.50;;;22.40;26.80;;;;;;5071616;28;20074;-83
2023/10/05 06:51:06;;;;;;;2.72;0.70;;;22.50;27.70;;;;;;5075547;28;20024;-79
2023/10/05 06:53:34;;;;;;;1.05;0.70;;;22.40;26.30;;;;;;5069906;28;20033;-81
2023/10/05 06:56:02;;;;;;;0.88;0.50;;;22.30;27.40;;;;;;5072348;28;20476;-85
2023/10/05 06:58:29;;;;;;;0.68;0.60;;;22.20;26.70;;;;;;5074237;28;20562;-82
2023/10/05 07:00:56;;;;;;;2.65;1.50;;;22.10;27.50;;;;;;5075200;28;20020;-86
2023/10/05 07:03:24;;;;;;;2.28;0.90;;;21.80;26.80;;;;;;5071962;28;20112;-86
2023/10/05 07:05:51;;;;;;;4.78;1.10;;;21.60;27.90;;;;;;5071274;28;20024;-81
2023/10/05 07:08:18;;;;;;;0.95;0.40;;;21.50;28.00;;;;;;5075406;28;20487;-80
2023/10/05 07:10:46;;;;;;;2.60;0.80;;;21.40;27.90;;;;;;5074342;28;20051;-85
2023/10/05 07:13:19;;;;;;;2.55;0.70;;;21.30;28.80;;;;;;5074933;28;20043;-85
2023/10/05 07:15:46;;;;;;;2.30;0.50;;;21.20;28.20;;;;;;5075413;28;20075;-84
2023/10/05 07:18:15;;;;;;;0.50;0.50;;;21.00;27.80;;;;;;5075053;28;20078;-81
2023/10/05 07:20:43;;;;;;;1.88;0.95;;;20.90;29.00;;;;;;5072390;28;20069;-85
2023/10/05 07:23:10;;;;;;;2.97;0.50;;;20.80;28.90;;;;;;5072795;28;20016;-85
2023/10/05 07:25:38;;;;;;;1.95;0.65;;;20.70;28.50;;;;;;5075269;28;20115;-82
2023/10/05 07:28:13;;;;;;;0.55;0.40;;;20.60;28.90;;;;;;5074027;28;20024;-88
2023/10/05 07:30:43;;;;;;;;;;;20.50;29.30;;;;;;5076007;28;20028;-85
2023/10/05 07:33:11;;;;;;;2.67;0.52;;;20.30;29.30;;;;;;5070177;28;19915;-85
2023/10/05 07:35:39;;;;;;;1.75;0.63;;;20.20;29.60;;;;;;5075553;28;20057;-82
2023/10/05 07:38:11;;;;;;;2.47;0.93;;;20.10;30.00;;;;;;5078672;28;20045;-82
2023/10/05 07:40:39;;;;;;;3.83;0.82;;;20.00;30.10;;;;;;5085197;28;20041;-80
2023/10/05 07:43:08;;;;;;;1.80;1.00;;;20.00;30.90;;;;;;5075156;28;20025;-82
2023/10/05 07:45:37;;;;;;;6.43;1.98;;;20.00;31.10;;;;;;5082928;28;20039;-83
2023/10/05 07:48:06;;;;;;;2.97;0.90;;;20.00;31.30;;;;;;5074342;28;20028;-83
2023/10/05 07:50:37;;;;;;;4.15;1.00;;;20.00;31.40;;;;;;5077388;28;20112;-83
2023/10/05 07:53:12;;;;;;;1.77;0.80;;;19.90;31.20;;;;;;5068143;28;20021;-85
2023/10/05 07:55:41;;;;;;;1.35;0.70;;;19.80;31.60;;;;;;5069716;28;20059;-85
2023/10/05 07:58:12;;;;;;;1.10;0.70;;;19.80;32.00;;;;;;5068501;28;20040;-84
2023/10/05 08:00:40;;;;;;;2.75;0.60;;;19.70;32.20;;;;;;5060338;28;20039;-84
2023/10/05 08:03:09;;;;;;;1.08;0.70;;;19.70;32.20;;;;;;5066229;28;20031;-81
2023/10/05 08:05:38;;;;;;;1.00;0.60;;;19.60;32.00;;;;;;5067929;28;20016;-81
2023/10/05 08:08:05;;;;;;;1.35;0.50;;;19.60;32.80;;;;;;5067027;28;20059;-80
2023/10/05 08:10:33;;;;;;;1.20;0.60;;;19.50;32.40;;;;;;5064632;28;20031;-82
2023/10/05 08:13:03;;;;;;;3.45;0.73;;;19.30;32.70;;;;;;5073982;28;20111;-85
2023/10/05 08:15:33;;;;;;;2.20;0.85;;;19.30;33.00;;;;;;5074423;28;20025;-82
2023/10/05 08:18:00;;;;;;;2.63;0.88;;;19.20;33.20;;;;;;5066775;28;20483;-82
2023/10/05 08:20:28;;;;;;;1.73;0.93;;;19.20;34.60;;;;;;5059197;28;20456;-82
2023/10/05 08:22:58;;;;;;;1.63;0.90;;;19.20;34.60;;;;;;5068266;28;20403;-82
2023/10/05 08:25:26;;;;;;;1.50;0.63;;;19.20;34.70;;;;;;5071828;28;20025;-82
2023/10/05 08:27:55;;;;;;;0.68;0.50;;;19.10;35.00;;;;;;5063258;28;20059;-85
2023/10/05 08:30:26;;;;;;;2.50;1.45;;;19.10;35.80;;;;;;5064473;28;20021;-86
2023/10/05 08:32:56;;;;;;;2.85;1.40;;;18.90;35.70;;;;;;5062775;28;20033;-81
2023/10/05 08:35:26;;;;;;;3.35;1.60;;;18.80;35.90;;;;;;5065957;28;20050;-83
2023/10/05 08:37:53;;;;;;;1.85;0.80;;;18.70;36.00;;;;;;5068516;28;20147;-82
2023/10/05 08:43:13;;;;;;;2.20;0.70;;;18.70;36.70;;;;;;5066207;28;20112;-84
2023/10/05 08:45:51;;;;;;;2.55;0.60;;;18.60;36.80;;;;;;5066677;28;20494;-81
2023/10/05 08:48:35;;;;;;;1.95;0.90;;;18.50;37.20;;;;;;5070572;28;20599;-83
2023/10/05 08:51:10;;;;;;;2.97;1.40;;;18.60;37.10;;;;;;5068234;28;20043;-86
2023/10/05 08:53:48;;;;;;;2.63;1.50;;;18.50;37.30;;;;;;5067352;28;20539;-85
2023/10/05 08:56:16;;;;;;;5.13;2.75;;;18.30;37.40;;;;;;5064287;28;20026;-83
2023/10/05 08:58:48;;;;;;;2.50;1.38;;;18.30;37.30;;;;;;5071495;28;20490;-84
2023/10/05 09:01:35;;;;;;;2.60;1.60;;;18.20;37.70;;;;;;5056622;28;20462;-84
2023/10/05 09:04:11;;;;;;;1.38;0.80;;;18.10;37.80;;;;;;5070234;28;20052;-84
2023/10/05 09:06:47;;;;;;;2.92;1.80;;;18.00;37.70;;;;;;5069663;28;20024;-86
2023/10/05 09:09:28;;;;;;;3.88;2.13;;;18.00;38.00;;;;;;5065825;28;20032;-84
2023/10/05 09:11:58;;;;;;;2.97;1.67;;;17.80;38.00;;;;;;5070790;28;20031;-85
2023/10/05 09:14:38;;;;;;;3.22;1.58;;;17.80;38.10;;;;;;5070835;28;20029;-84
2023/10/05 09:17:10;;;;;;;1.50;0.65;;;17.80;38.40;;;;;;5073576;28;20040;-84
2023/10/05 09:19:38;;;;;;;1.88;0.82;;;17.70;38.30;;;;;;5072536;28;20062;-84
2023/10/05 09:22:12;;;;;;;1.95;0.90;;;17.70;38.70;;;;;;5053250;28;20100;-83
2023/10/05 09:24:43;;;;;;;2.63;0.90;;;17.70;38.50;;;;;;5053974;28;20036;-83
2023/10/05 09:27:15;;;;;;;2.40;0.80;;;17.60;38.90;;;;;;5052984;28;20491;-84
2023/10/05 09:29:43;;;;;;;1.27;0.90;;;17.70;39.50;;;;;;5069380;28;20075;-84
2023/10/05 09:32:36;;;;;;;1.63;0.82;;;17.70;39.10;;;;;;5069440;28;20108;-85
2023/10/05 09:35:10;;;;;;;1.88;0.70;;;17.60;39.00;;;;;;5064356;28;20108;-83
2023/10/05 09:37:42;;;;;;;3.15;0.90;;;17.60;39.30;;;;;;5069278;28;20072;-82
2023/10/05 09:40:16;;;;;;;1.60;0.63;;;17.50;39.20;;;;;;5077075;28;20030;-84
2023/10/05 09:42:46;;;;;;;1.85;1.13;;;17.50;39.50;;;;;;5066776;28;20029;-83
2023/10/05 09:45:17;;;;;;;2.63;0.93;;;17.50;39.70;;;;;;5067002;28;20052;-83
2023/10/05 09:47:47;;;;;;;1.38;0.65;;;17.50;39.50;;;;;;5072520;28;20028;-80
2023/10/05 09:50:15;;;;;;;1.58;0.88;;;17.50;39.40;;;;;;5062988;28;20189;-84
2023/10/05 09:52:45;;;;;;;0.70;0.60;;;17.30;39.60;;;;;;5063522;28;20029;-82
2023/10/05 09:55:17;;;;;;;3.53;0.93;;;17.20;39.70;;;;;;5053932;28;21037;-85
2023/10/05 09:57:51;;;;;;;2.30;0.73;;;17.20;39.90;;;;;;5068345;28;20099;-83
2023/10/05 10:02:58;;;;;;;3.90;0.80;;;17.20;40.30;;;;;;5057423;28;20091;-84
2023/10/05 10:05:36;;;;;;;2.72;0.75;;;17.20;40.10;;;;;;5079338;28;20058;-86
2023/10/05 10:08:20;;;;;;;2.40;1.02;;;17.20;40.10;;;;;;5066690;28;20107;-82
2023/10/05 10:11:07;;;;;;;2.40;0.80;;;17.20;40.90;;;;;;5061126;28;20039;-85
2023/10/05 10:13:39;;;;;;;1.50;0.70;;;17.20;40.70;;;;;;5061057;28;20025;-86
2023/10/05 10:16:22;;;;;;;1.75;0.60;;;17.20;40.30;;;;;;5068498;28;20024;-83
2023/10/05 10:19:20;;;;;;;2.00;0.88;;;17.20;40.40;;;;;;5072623;28;20426;-85
2023/10/05 10:22:07;;;;;;;0.65;0.60;;;17.10;40.60;;;;;;5065073;28;20028;-85
2023/10/05 10:24:35;;;;;;;0.90;0.50;;;17.00;40.90;;;;;;5067367;28;20024;-85
2023/10/05 10:27:08;;;;;;;2.05;0.57;;;17.10;41.30;;;;;;5063318;28;20121;-83
2023/10/05 10:29:46;;;;;;;1.27;0.50;;;17.00;40.50;;;;;;5067818;28;20493;-84
2023/10/05 10:32:31;;;;;;;2.65;0.70;;;16.90;41.60;;;;;;5071115;28;20472;-84
2023/10/05 10:35:12;;;;;;;1.52;0.75;;;17.00;41.60;;;;;;5066745;28;20028;-84
2023/10/05 10:37:54;;;;;;;1.75;0.70;;;16.90;41.70;;;;;;5063271;28;20040;-86
2023/10/05 10:43:06;;;;;;;1.75;0.50;;;17.00;42.00;;;;;;5056027;28;20479;-84
2023/10/05 10:45:40;;;;;;;1.15;0.60;;;16.80;41.10;;;;;;5061275;28;20028;-84
2023/10/05 10:48:32;;;;;;;1.67;0.70;;;16.80;41.40;;;;;;5061657;28;20031;-84
2023/10/05 10:51:10;;;;;;;1.40;0.68;;;16.80;42.90;;;;;;5062134;28;20021;-85
2023/10/05 10:53:43;;;;;;;1.17;0.60;;;16.90;43.90;;;;;;5066413;28;20024;-85
2023/10/05 10:56:30;;;;;;;0.63;0.55;;;16.90;43.40;;;;;;5062299;28;20043;-85
2023/10/05 10:59:07;;;;;;;;;;;16.90;43.70;;;;;;5057501;28;20090;-83
2023/10/05 11:01:44;;;;;;;1.13;0.50;;;16.90;41.50;;;;;;5062578;28;19962;-84
2023/10/05 11:04:25;;;;;;;1.48;0.57;;;16.80;41.80;;;;;;5061698;28;20530;-84
2023/10/05 11:06:56;;;;;;;1.10;0.60;;;16.70;42.00;;;;;;5067362;28;20043;-82
2023/10/05 11:09:31;;;;;;;0.55;0.35;;;16.70;42.00;;;;;;5076300;28;20070;-83
2023/10/05 11:12:08;;;;;;;0.68;0.60;;;16.60;42.00;;;;;;5071631;28;20028;-84
2023/10/05 11:14:43;;;;;;;2.05;0.70;;;16.60;41.10;;;;;;5075003;28;20066;-85
2023/10/05 11:17:45;;;;;;;1.45;0.88;;;16.60;41.30;;;;;;5075949;28;20024;-85
2023/10/05 11:20:33;;;;;;;1.60;0.60;;;16.60;40.90;;;;;;5056129;28;20032;-84
2023/10/05 11:23:04;;;;;;;2.33;0.50;;;16.50;41.40;;;;;;5074635;28;20024;-84
2023/10/05 11:25:32;;;;;;;1.60;0.65;;;16.50;40.80;;;;;;5058445;28;20104;-84
2023/10/05 11:28:07;;;;;;;1.50;0.57;;;16.50;41.70;;;;;;5072125;28;20021;-84
2023/10/05 11:30:42;;;;;;;1.73;0.55;;;16.50;41.60;;;;;;5068005;28;20049;-83
2023/10/05 11:33:20;;;;;;;0.40;0.40;;;16.50;41.50;;;;;;5058922;28;20472;-84
2023/10/05 11:35:55;;;;;;;1.63;0.45;;;16.40;41.50;;;;;;5068909;28;20055;-85
2023/10/05 11:38:26;;;;;;;;;;;16.40;41.30;;;;;;5072283;28;20052;-84
2023/10/05 11:40:54;;;;;;;1.40;0.70;;;16.40;42.70;;;;;;5065588;28;19923;-84
2023/10/05 11:43:22;;;;;;;2.20;0.50;;;16.40;40.80;;;;;;5057394;28;20056;-82
2023/10/05 11:46:24;;;;;;;0.98;0.70;;;16.30;41.50;;;;;;5065931;28;20482;-83
2023/10/05 11:49:04;;;;;;;1.48;0.55;;;16.30;41.10;;;;;;5068540;28;20141;-80
2023/10/05 11:52:11;;;;;;;2.88;0.85;;;16.30;40.90;;;;;;5058239;28;20071;-83
2023/10/05 11:54:31;;;;;;;1.63;0.73;;;16.20;40.70;;;;;;5065480;28;20037;-81
2023/10/05 11:57:00;;;;;;;2.58;0.60;;;16.20;41.70;;;;;;5067829;28;20380;-81
2023/10/05 11:59:29;;;;;;;1.77;0.55;;;16.30;42.30;;;;;;5064480;28;20032;-80
2023/10/05 12:01:57;;;;;;;0.75;0.35;;;16.40;43.60;;;;;;5069803;28;20098;-84
2023/10/05 12:04:26;;;;;;;1.45;0.80;;;16.40;43.80;;;;;;5070316;28;20443;-85
2023/10/05 12:07:00;;;;;;;5.32;1.08;;;16.40;43.10;;;;;;5076597;28;20499;-81
2023/10/05 12:09:32;;;;;;;2.28;0.98;;;16.50;44.00;;;;;;5073041;28;20027;-84
2023/10/05 12:12:03;;;;;;;3.30;0.80;;;16.50;41.40;;;;;;5074272;28;20024;-81
2023/10/05 12:14:32;;;;;;;4.28;1.13;;;16.30;42.50;;;;;;5074413;28;20082;-83
2023/10/05 12:17:00;;;;;;;1.10;0.70;;;16.40;43.10;;;;;;5071183;28;20033;-83
2023/10/05 12:19:33;;;;;;;2.38;0.55;;;16.30;41.40;;;;;;5057967;28;20021;-82
2023/10/05 12:22:06;;;;;;;2.08;0.60;;;16.30;43.00;;;;;;5071726;28;20166;-81
2023/10/05 12:24:34;;;;;;;1.15;0.73;;;16.30;43.80;;;;;;5059047;28;20387;-83
2023/10/05 12:27:13;;;;;;;1.75;0.50;;;16.20;41.90;;;;;;5071395;28;20027;-84
2023/10/05 12:29:44;;;;;;;1.17;0.40;;;16.20;40.90;;;;;;5069671;28;20032;-83
2023/10/05 12:32:15;;;;;;;1.08;0.65;;;16.20;41.80;;;;;;5057678;28;20044;-84
2023/10/05 12:34:48;;;;;;;1.08;0.55;;;16.20;42.60;;;;;;5073229;28;20029;-85
2023/10/05 12:37:19;;;;;;;3.10;0.50;;;16.10;41.50;;;;;;5059396;28;20041;-83
2023/10/05 12:39:47;;;;;;;2.70;0.70;;;16.20;42.60;;;;;;5065602;28;20651;-83
2023/10/05 12:42:14;;;;;;;1.92;0.57;;;16.20;42.90;;;;;;5068971;28;20104;-81
2023/10/05 12:44:42;;;;;;;1.73;0.50;;;16.20;42.30;;;;;;5073475;28;20024;-83
2023/10/05 12:47:09;;;;;;;3.05;0.60;;;16.20;43.50;;;;;;5073838;28;20479;-83
2023/10/05 12:49:37;;;;;;;1.60;0.60;;;16.20;43.50;;;;;;5065640;28;20020;-82
2023/10/05 12:52:05;;;;;;;1.88;0.80;;;16.20;44.20;;;;;;5068871;28;20086;-79
2023/10/05 12:54:34;;;;;;;1.27;0.60;;;16.20;42.30;;;;;;5056559;28;20107;-83
2023/10/05 12:57:10;;;;;;;2.20;0.55;;;16.20;43.30;;;;;;5067905;28;20036;-84
2023/10/05 12:59:38;;;;;;;2.72;0.70;;;16.20;42.70;;;;;;5068088;28;20017;-81
2023/10/05 13:02:15;;;;;;;1.65;0.60;;;16.10;43.90;;;;;;5063252;28;20025;-82
2023/10/05 13:04:42;;;;;;;1.50;0.40;;;16.10;44.80;;;;;;5054505;28;20017;-85
2023/10/05 13:07:10;;;;;;;1.15;0.50;;;16.20;45.60;;;;;;5059278;28;20025;-84
2023/10/05 13:09:39;;;;;;;1.48;0.60;;;16.20;45.10;;;;;;5068219;28;20383;-84
2023/10/05 13:12:08;;;;;;;1.45;0.60;;;16.20;42.70;;;;;;5062760;28;20469;-84
2023/10/05 13:14:35;;;;;;;1.98;0.73;;;16.20;42.50;;;;;;5057202;28;20025;-83
2023/10/05 13:17:05;;;;;;;2.95;0.60;;;16.10;43.70;;;;;;5066377;28;20032;-84
2023/10/05 13:19:37;;;;;;;1.75;0.73;;;16.10;45.30;;;;;;5066729;28;20064;-83
2023/10/05 13:22:06;;;;;;;1.05;0.63;;;16.20;46.80;;;;;;5070119;28;20033;-84
2023/10/05 13:24:33;;;;;;;1.75;0.70;;;16.20;46.80;;;;;;5056018;28;20036;-83
2023/10/05 13:27:01;;;;;;;2.75;0.70;;;16.20;44.30;;;;;;5072233;28;20089;-82
2023/10/05 13:29:29;;;;;;;1.38;0.75;;;16.10;44.70;;;;;;5054038;28;20052;-83
2023/10/05 13:31:56;;;;;;;1.45;0.60;;;16.00;44.70;;;;;;5053795;28;20028;-84
2023/10/05 13:34:27;;;;;;;3.38;1.00;;;16.10;45.80;;;;;;5067379;28;20024;-83